createdAt,value
2018-10-21T00:02:06.723Z,82.94
2018-10-21T00:04:36.836Z,81.59
2018-10-21T00:07:06.942Z,82.77
2018-10-21T00:09:36.961Z,82.33
2018-10-21T00:12:06.961Z,83.10
2018-10-21T00:14:38.301Z,82.47
2018-10-21T00:17:08.443Z,83.43
2018-10-21T00:19:38.256Z,83.34
2018-10-21T00:22:08.146Z,83.68
2018-10-21T00:24:37.996Z,83.19
2018-10-21T00:27:07.989Z,81.87
2018-10-21T00:29:37.893Z,81.18
2018-10-21T00:32:07.955Z,81.31
2018-10-21T00:34:37.797Z,82.76
2018-10-21T00:37:07.779Z,81.90
2018-10-21T00:39:37.707Z,82.17
2018-10-21T00:42:07.637Z,83.41
2018-10-21T00:44:37.460Z,83.23
2018-10-21T00:47:07.377Z,84.09
2018-10-21T00:49:37.154Z,84.35
2018-10-21T00:52:07.520Z,83.45
2018-10-21T00:54:37.925Z,82.75
2018-10-21T00:57:08.282Z,82.11
2018-10-21T00:59:38.258Z,82.42
2018-10-21T01:02:08.316Z,83.36
2018-10-21T01:04:38.102Z,82.98
2018-10-21T01:07:07.972Z,81.59
2018-10-21T01:09:37.820Z,82.30
2018-10-21T01:12:07.682Z,83.43
2018-10-21T01:14:37.688Z,83.73
2018-10-21T01:17:07.710Z,82.98
2018-10-21T01:19:37.621Z,84.11
2018-10-21T01:22:07.544Z,84.71
2018-10-21T01:24:37.452Z,84.97
2018-10-21T01:27:07.791Z,84.95
2018-10-21T01:29:37.761Z,86.79
2018-10-21T01:32:07.685Z,87.08
2018-10-21T01:34:37.657Z,86.71
2018-10-21T01:37:07.665Z,86.50
2018-10-21T01:40:50.125Z,87.91
2018-10-21T01:43:35.207Z,89.20
2018-10-21T01:46:05.401Z,88.38
2018-10-21T01:48:35.238Z,89.28
2018-10-21T01:51:05.469Z,89.98
2018-10-21T01:53:35.289Z,91.92
2018-10-21T01:56:05.560Z,93.11
2018-10-21T01:58:35.470Z,94.91
2018-10-21T02:01:06.145Z,94.31
2018-10-21T02:03:35.968Z,93.07
2018-10-21T02:06:06.027Z,94.37
2018-10-21T02:08:36.023Z,93.64
2018-10-21T02:11:06.039Z,92.69
2018-10-21T02:13:36.007Z,92.15
2018-10-21T02:16:06.340Z,92.94
2018-10-21T02:18:36.241Z,93.39
2018-10-21T02:21:06.406Z,93.36
2018-10-21T02:23:36.434Z,97.03
2018-10-21T02:26:07.195Z,98.30
2018-10-21T02:28:37.268Z,99.03
2018-10-21T02:31:07.492Z,100.00
2018-10-21T02:33:37.714Z,100.00
2018-10-21T02:36:08.410Z,100.00
2018-10-21T02:38:38.604Z,100.00
2018-10-21T02:41:20.177Z,100.00
2018-10-21T02:43:50.289Z,100.00
2018-10-21T02:46:20.651Z,100.00
2018-10-21T02:48:51.893Z,100.00
2018-10-21T02:51:22.030Z,100.00
2018-10-21T02:53:52.149Z,100.00
2018-10-21T02:56:22.152Z,100.00
2018-10-21T02:58:52.295Z,100.00
2018-10-21T03:01:22.140Z,97.92
2018-10-21T03:03:52.109Z,98.07
2018-10-21T03:06:22.047Z,98.73
2018-10-21T03:08:52.252Z,98.61
2018-10-21T03:11:23.139Z,99.50
2018-10-21T03:13:53.204Z,100.00
2018-10-21T03:16:23.404Z,100.00
2018-10-21T03:18:54.579Z,100.00
2018-10-21T03:21:24.689Z,100.00
2018-10-21T03:23:54.605Z,100.00
2018-10-21T03:26:26.244Z,100.00
2018-10-21T03:28:57.045Z,100.00
2018-10-21T03:31:27.005Z,100.00
2018-10-21T03:33:57.006Z,100.00
2018-10-21T03:36:26.880Z,100.00
2018-10-21T03:38:56.753Z,99.34
2018-10-21T03:41:26.652Z,98.94
2018-10-21T03:43:56.492Z,99.16
2018-10-21T03:46:26.508Z,98.69
2018-10-21T03:48:56.499Z,97.36
2018-10-21T03:51:26.414Z,97.89
2018-10-21T03:53:56.373Z,99.17
2018-10-21T03:56:26.759Z,100.00
2018-10-21T03:58:56.621Z,100.00
2018-10-21T04:01:27.440Z,100.00
2018-10-21T04:04:02.113Z,99.50
2018-10-21T04:06:33.562Z,99.57
2018-10-21T04:09:03.962Z,100.00
2018-10-21T04:11:35.482Z,100.00
2018-10-21T04:14:05.808Z,98.69
2018-10-21T04:16:35.801Z,98.01
2018-10-21T04:19:06.477Z,98.67
2018-10-21T04:21:38.075Z,97.58
2018-10-21T04:24:08.036Z,98.00
2018-10-21T04:26:38.048Z,98.13
2018-10-21T04:29:08.070Z,98.10
2018-10-21T04:31:40.157Z,97.89
2018-10-21T04:34:10.093Z,97.11
2018-10-21T04:36:40.067Z,98.28
2018-10-21T04:39:25.189Z,97.09
2018-10-21T04:41:55.282Z,97.84
2018-10-21T04:44:25.431Z,98.04
2018-10-21T04:46:55.840Z,97.41
2018-10-21T04:49:25.602Z,98.20
2018-10-21T04:51:55.642Z,97.62
2018-10-21T04:54:28.372Z,97.83
2018-10-21T04:56:58.208Z,97.51
2018-10-21T04:59:28.086Z,97.10
2018-10-21T05:01:57.966Z,97.29
2018-10-21T05:04:27.799Z,96.82
2018-10-21T05:06:57.737Z,96.99
2018-10-21T05:09:27.641Z,96.56
2018-10-21T05:11:57.537Z,97.73
2018-10-21T05:14:27.336Z,96.91
2018-10-21T05:16:57.128Z,97.65
2018-10-21T05:19:26.980Z,97.83
2018-10-21T05:21:56.799Z,98.67
2018-10-21T05:24:26.637Z,99.55
2018-10-21T05:27:03.832Z,99.60
2018-10-21T05:29:34.698Z,99.26
2018-10-21T05:32:05.300Z,100.00
2018-10-21T05:34:35.201Z,100.00
2018-10-21T05:37:08.111Z,100.00
2018-10-21T05:39:38.597Z,100.00
2018-10-21T05:42:08.601Z,100.00
2018-10-21T05:44:38.526Z,100.00
2018-10-21T05:47:08.382Z,100.00
2018-10-21T05:49:38.129Z,100.00
2018-10-21T05:52:08.083Z,100.00
2018-10-21T05:54:44.166Z,98.35
2018-10-21T05:57:14.220Z,95.58
2018-10-21T05:59:44.051Z,94.97
2018-10-21T06:02:14.111Z,95.82
2018-10-21T06:04:44.095Z,96.59
2018-10-21T06:07:13.941Z,97.01
2018-10-21T06:09:43.756Z,97.81
2018-10-21T06:12:16.997Z,93.68
2018-10-21T06:14:48.685Z,91.30
2018-10-21T06:17:26.852Z,90.34
2018-10-21T06:19:59.859Z,87.63
2018-10-21T06:22:33.709Z,85.56
2018-10-21T06:25:06.225Z,80.83
2018-10-21T06:27:36.399Z,77.17
2018-10-21T06:30:07.361Z,74.18
2018-10-21T06:32:37.302Z,72.14
2018-10-21T06:35:07.972Z,69.74
2018-10-21T06:37:38.220Z,68.39
2018-10-21T06:40:09.994Z,67.30
2018-10-21T06:42:40.229Z,66.43
2018-10-21T06:45:12.463Z,65.71
2018-10-21T06:47:44.216Z,64.19
2018-10-21T06:50:21.620Z,61.07
2018-10-21T06:52:51.605Z,61.24
2018-10-21T06:55:21.684Z,61.24
2018-10-21T06:57:51.971Z,57.85
2018-10-21T07:00:21.941Z,58.75
2018-10-21T07:02:51.800Z,57.92
2018-10-21T07:05:32.294Z,57.70
2018-10-21T07:08:06.864Z,54.65
2018-10-21T07:10:39.416Z,55.26
2018-10-21T07:13:11.090Z,56.94
2018-10-21T07:15:43.767Z,55.88
2018-10-21T07:18:13.986Z,56.25
2018-10-21T07:20:43.941Z,55.90
2018-10-21T07:23:13.765Z,53.75
2018-10-21T07:25:43.669Z,54.10
2018-10-21T07:28:13.696Z,54.25
2018-10-21T07:30:44.437Z,54.20
2018-10-21T07:33:14.238Z,52.41
2018-10-21T07:35:44.095Z,52.33
2018-10-21T07:38:13.967Z,51.90
2018-10-21T07:40:43.856Z,52.83
2018-10-21T07:43:13.885Z,52.95
2018-10-21T07:45:43.824Z,52.76
2018-10-21T07:48:13.794Z,53.55
2018-10-21T07:50:43.606Z,52.10
2018-10-21T07:53:13.591Z,52.92
2018-10-21T07:55:43.574Z,52.38
2018-10-21T07:58:13.796Z,54.09
2018-10-21T08:00:43.585Z,52.08
2018-10-21T08:03:13.359Z,52.26
2018-10-21T08:05:53.973Z,51.14
2018-10-21T08:08:25.125Z,50.31
2018-10-21T08:10:54.987Z,50.36
2018-10-21T08:13:26.865Z,48.90
2018-10-21T08:15:56.958Z,48.13
2018-10-21T08:18:26.970Z,48.39
2018-10-21T08:20:56.830Z,48.70
2018-10-21T08:23:26.703Z,47.96
2018-10-21T08:25:56.603Z,48.50
2018-10-21T08:28:26.525Z,50.52
2018-10-21T08:30:56.355Z,49.18
2018-10-21T08:33:26.236Z,48.88
2018-10-21T08:35:56.127Z,48.74
2018-10-21T08:38:26.015Z,47.87
2018-10-21T08:40:55.948Z,48.08
2018-10-21T08:43:25.757Z,49.23
2018-10-21T08:45:55.660Z,48.06
2018-10-21T08:48:25.495Z,47.51
2018-10-21T08:50:55.279Z,49.86
2018-10-21T08:53:25.385Z,49.84
2018-10-21T08:55:55.216Z,48.24
2018-10-21T08:58:25.004Z,48.07
2018-10-21T09:00:55.035Z,45.32
2018-10-21T09:03:24.970Z,47.63
2018-10-21T09:05:54.956Z,46.17
2018-10-21T09:08:24.784Z,46.66
2018-10-21T09:10:54.763Z,45.71
2018-10-21T09:13:24.604Z,43.42
2018-10-21T09:15:54.392Z,41.56
2018-10-21T09:18:24.339Z,40.78
2018-10-21T09:20:54.176Z,42.41
2018-10-21T09:23:24.348Z,42.45
2018-10-21T09:25:54.169Z,44.46
2018-10-21T09:28:24.056Z,47.23
2018-10-21T09:30:53.936Z,46.53
2018-10-21T09:33:23.774Z,40.12
2018-10-21T09:35:53.627Z,40.64
2018-10-21T09:38:23.371Z,39.00
2018-10-21T09:40:53.273Z,37.04
2018-10-21T09:43:23.096Z,37.21
2018-10-21T09:45:52.905Z,35.39
2018-10-21T09:48:22.743Z,35.16
2018-10-21T09:50:52.625Z,35.30
2018-10-21T09:53:22.376Z,36.01
2018-10-21T09:55:52.187Z,34.83
2018-10-21T09:58:22.193Z,32.28
2018-10-21T10:00:57.057Z,33.65
2018-10-21T10:03:26.925Z,32.07
2018-10-21T10:05:56.836Z,31.43
2018-10-21T10:08:26.799Z,32.43
2018-10-21T10:10:56.872Z,33.21
2018-10-21T10:13:26.807Z,32.23
2018-10-21T10:15:56.892Z,31.57
2018-10-21T10:18:26.844Z,30.53
2018-10-21T10:20:56.848Z,31.26
2018-10-21T10:23:26.850Z,34.63
2018-10-21T10:25:56.632Z,32.99
2018-10-21T10:28:26.425Z,32.50
2018-10-21T10:30:56.887Z,30.04
2018-10-21T10:33:26.839Z,31.52
2018-10-21T10:35:56.809Z,30.60
2018-10-21T10:38:26.685Z,31.81
2018-10-21T10:40:56.729Z,32.47
2018-10-21T10:43:26.841Z,32.29
2018-10-21T10:45:57.280Z,32.79
2018-10-21T10:48:27.366Z,31.75
2018-10-21T10:54:32.800Z,31.79
2018-10-21T10:57:07.168Z,31.09
2018-10-21T10:59:43.783Z,33.05
2018-10-21T11:02:15.182Z,33.19
2018-10-21T11:04:46.262Z,33.03
2018-10-21T11:07:16.245Z,31.80
2018-10-21T11:09:46.584Z,29.55
2018-10-21T11:12:16.632Z,30.59
2018-10-21T11:14:46.536Z,28.54
2018-10-21T11:17:16.337Z,28.78
2018-10-21T11:19:46.201Z,28.44
2018-10-21T11:22:16.384Z,28.02
2018-10-21T11:24:48.488Z,27.02
2018-10-21T11:27:18.924Z,28.95
2018-10-21T11:29:49.565Z,31.54
2018-10-21T11:32:19.406Z,29.35
2018-10-21T11:34:49.609Z,29.21
2018-10-21T11:37:19.507Z,29.41
2018-10-21T11:39:49.251Z,29.61
2018-10-21T11:42:19.361Z,29.57
2018-10-21T11:44:49.289Z,29.50
2018-10-21T11:47:19.549Z,29.74
2018-10-21T11:49:49.514Z,28.42
2018-10-21T11:52:19.509Z,31.62
2018-10-21T11:54:49.357Z,31.50
2018-10-21T11:57:19.485Z,33.73
2018-10-21T11:59:49.733Z,34.34
2018-10-21T12:02:19.614Z,34.27
2018-10-21T12:04:49.447Z,35.06
2018-10-21T12:07:22.664Z,35.83
2018-10-21T12:09:53.136Z,35.05
2018-10-21T12:12:23.717Z,35.45
2018-10-21T12:14:53.834Z,33.32
2018-10-21T12:17:23.732Z,33.68
2018-10-21T12:19:54.009Z,34.99
2018-10-21T12:22:24.169Z,34.52
2018-10-21T12:24:53.932Z,34.55
2018-10-21T12:27:23.940Z,37.13
2018-10-21T12:29:54.005Z,35.04
2018-10-21T12:32:23.935Z,36.53
2018-10-21T12:34:53.754Z,37.35
2018-10-21T12:37:23.772Z,37.61
2018-10-21T12:39:53.600Z,38.55
2018-10-21T12:42:23.698Z,36.36
2018-10-21T12:44:54.353Z,35.08
2018-10-21T12:47:24.350Z,36.65
2018-10-21T12:49:54.196Z,36.42
2018-10-21T12:52:24.099Z,36.14
2018-10-21T12:54:53.902Z,35.86
2018-10-21T12:57:23.784Z,37.48
2018-10-21T12:59:53.770Z,38.21
2018-10-21T13:02:24.499Z,36.43
2018-10-21T13:04:54.404Z,37.21
2018-10-21T13:07:24.302Z,37.30
2018-10-21T13:09:54.329Z,37.47
2018-10-21T13:12:24.566Z,38.33
2018-10-21T13:14:54.596Z,39.08
2018-10-21T13:17:24.798Z,38.64
2018-10-21T13:19:54.811Z,38.19
2018-10-21T13:22:25.545Z,38.18
2018-10-21T13:28:04.979Z,39.81
2018-10-21T13:30:34.720Z,40.29
2018-10-21T13:33:07.797Z,39.39
2018-10-21T13:35:40.343Z,40.36
2018-10-21T13:38:16.706Z,39.90
2018-10-21T13:41:01.228Z,41.51
2018-10-21T13:46:33.797Z,42.74
2018-10-21T13:49:06.347Z,45.50
2018-10-21T13:51:38.783Z,43.84
2018-10-21T13:57:37.774Z,43.29
2018-10-21T14:00:32.258Z,46.88
2018-10-21T14:06:48.266Z,44.84
2018-10-21T14:09:40.395Z,45.93
2018-10-21T14:12:36.236Z,44.51
2018-10-21T14:15:37.676Z,43.99
2018-10-21T14:18:13.264Z,44.71
2018-10-21T14:20:43.191Z,44.66
2018-10-21T14:23:13.360Z,44.58
2018-10-21T14:25:43.212Z,45.08
2018-10-21T14:28:13.229Z,44.03
2018-10-21T14:30:44.106Z,43.17
2018-10-21T14:33:14.143Z,43.84
2018-10-21T14:35:43.879Z,45.45
2018-10-21T14:38:13.989Z,44.27
2018-10-21T14:40:43.916Z,44.71
2018-10-21T14:43:13.830Z,44.17
2018-10-21T14:45:43.800Z,45.36
2018-10-21T14:48:13.694Z,45.72
2018-10-21T14:50:43.585Z,46.35
2018-10-21T14:53:13.431Z,46.51
2018-10-21T14:55:43.416Z,46.60
2018-10-21T14:58:13.513Z,47.09
2018-10-21T15:00:43.768Z,48.34
2018-10-21T15:03:15.276Z,48.60
2018-10-21T15:05:45.396Z,48.04
2018-10-21T15:08:15.381Z,48.48
2018-10-21T15:10:45.332Z,47.66
2018-10-21T15:13:15.257Z,48.50
2018-10-21T15:15:45.143Z,48.65
2018-10-21T15:18:15.222Z,50.39
2018-10-21T15:20:45.670Z,49.07
2018-10-21T15:23:16.538Z,51.56
2018-10-21T15:25:46.706Z,51.47
2018-10-21T15:28:16.701Z,51.58
2018-10-21T15:30:46.674Z,51.45
2018-10-21T15:33:16.657Z,51.67
2018-10-21T15:35:46.675Z,52.77
2018-10-21T15:38:16.778Z,51.96
2018-10-21T15:40:46.717Z,53.73
2018-10-21T15:43:19.602Z,53.72
2018-10-21T15:45:50.689Z,52.40
2018-10-21T15:48:51.355Z,53.25
2018-10-21T15:51:38.545Z,53.44
2018-10-21T15:54:12.311Z,53.24
2018-10-21T15:57:02.117Z,53.49
2018-10-21T15:59:54.767Z,53.53
2018-10-21T16:02:47.349Z,53.92
2018-10-21T16:08:41.920Z,55.68
2018-10-21T16:11:22.290Z,55.68
2018-10-21T16:13:52.257Z,56.54
2018-10-21T16:16:22.114Z,57.25
2018-10-21T16:18:52.124Z,57.51
2018-10-21T16:21:22.214Z,58.33
2018-10-21T16:23:52.374Z,58.47
2018-10-21T16:26:22.950Z,58.62
2018-10-21T16:28:55.021Z,59.26
2018-10-21T16:31:25.399Z,60.60
2018-10-21T16:33:55.329Z,61.38
2018-10-21T16:36:25.995Z,61.36
2018-10-21T16:38:56.142Z,61.97
2018-10-21T16:41:30.109Z,63.03
2018-10-21T16:43:59.982Z,65.26
2018-10-21T16:46:29.933Z,68.14
2018-10-21T16:48:59.780Z,68.16
2018-10-21T16:51:30.706Z,66.76
2018-10-21T16:54:01.129Z,68.20
2018-10-21T16:56:31.201Z,69.17
2018-10-21T16:59:01.183Z,71.40
2018-10-21T17:01:30.996Z,70.80
2018-10-21T17:04:00.988Z,71.83
2018-10-21T17:06:30.964Z,72.03
2018-10-21T17:09:00.824Z,72.52
2018-10-21T17:11:32.055Z,72.01
2018-10-21T17:14:02.599Z,72.50
2018-10-21T17:16:33.458Z,72.85
2018-10-21T17:19:03.911Z,72.58
2018-10-21T17:21:33.840Z,71.53
2018-10-21T17:24:04.390Z,72.09
2018-10-21T17:26:34.432Z,72.82
2018-10-21T17:29:04.679Z,73.09
2018-10-21T17:31:34.670Z,72.46
2018-10-21T17:34:04.696Z,72.64
2018-10-21T17:36:34.899Z,74.11
2018-10-21T17:39:07.802Z,79.10
2018-10-21T17:41:43.006Z,80.06
2018-10-21T17:44:14.524Z,80.67
2018-10-21T17:46:45.061Z,81.77
2018-10-21T17:49:17.312Z,84.30
2018-10-21T17:51:48.499Z,84.19
2018-10-21T17:54:18.766Z,84.20
2018-10-21T17:56:53.655Z,85.93
2018-10-21T17:59:23.917Z,84.62
2018-10-21T18:01:54.004Z,85.22
2018-10-21T18:04:25.715Z,87.15
2018-10-21T18:06:57.736Z,87.79
2018-10-21T18:09:37.926Z,88.82
2018-10-21T18:12:09.905Z,87.25
2018-10-21T18:14:42.146Z,91.69
2018-10-21T18:17:44.782Z,88.53
2018-10-21T18:23:16.155Z,94.41
2018-10-21T18:25:50.759Z,95.97
2018-10-21T18:28:25.358Z,94.68
2018-10-21T18:30:55.651Z,93.74
2018-10-21T18:33:26.983Z,88.50
2018-10-21T18:35:58.713Z,85.51
2018-10-21T18:38:29.510Z,87.83
2018-10-21T18:41:00.012Z,86.36
2018-10-21T18:43:30.217Z,84.58
2018-10-21T18:46:00.514Z,84.26
2018-10-21T18:48:30.482Z,87.50
2018-10-21T18:51:00.506Z,88.35
2018-10-21T18:53:30.525Z,87.61
2018-10-21T18:56:02.903Z,85.58
2018-10-21T18:58:33.212Z,85.72
2018-10-21T19:01:03.219Z,86.82
2018-10-21T19:03:33.373Z,84.35
2018-10-21T19:06:03.851Z,85.10
2018-10-21T19:08:33.876Z,84.65
2018-10-21T19:11:04.044Z,86.43
2018-10-21T19:13:53.796Z,88.05
2018-10-21T19:16:25.986Z,89.81
2018-10-21T19:18:55.987Z,85.78
2018-10-21T19:21:25.905Z,84.80
2018-10-21T19:23:56.109Z,82.11
2018-10-21T19:26:26.045Z,83.19
2018-10-21T19:28:55.929Z,83.08
2018-10-21T19:31:25.821Z,85.23
2018-10-21T19:33:56.179Z,85.80
2018-10-21T19:36:26.852Z,85.48
2018-10-21T19:38:56.921Z,85.69
2018-10-21T19:41:26.808Z,85.54
2018-10-21T19:43:56.804Z,84.36
2018-10-21T19:46:26.845Z,84.50
2018-10-21T19:48:56.827Z,83.66
2018-10-21T19:51:27.424Z,82.22
2018-10-21T19:53:59.006Z,81.36
2018-10-21T19:56:31.730Z,82.53
2018-10-21T19:59:03.861Z,81.53
2018-10-21T20:01:33.762Z,81.11
2018-10-21T20:04:04.140Z,80.56
2018-10-21T20:06:35.148Z,80.93
2018-10-21T20:09:07.873Z,82.26
2018-10-21T20:11:38.276Z,83.79
2018-10-21T20:14:08.863Z,84.73
2018-10-21T20:16:39.119Z,84.77
2018-10-21T20:19:10.889Z,83.86
2018-10-21T20:21:40.959Z,83.98
2018-10-21T20:24:11.165Z,84.68
2018-10-21T20:26:40.981Z,83.75
2018-10-21T20:29:10.984Z,82.18
2018-10-21T20:31:40.754Z,82.00
2018-10-21T20:34:12.778Z,82.00
2018-10-21T20:36:43.933Z,80.85
2018-10-21T20:39:14.096Z,80.68
2018-10-21T20:41:45.132Z,80.36
2018-10-21T20:44:15.110Z,80.46
2018-10-21T20:46:45.026Z,79.19
2018-10-21T20:49:15.167Z,80.38
2018-10-21T20:51:45.604Z,80.60
2018-10-21T20:54:16.785Z,80.44
2018-10-21T20:56:46.814Z,81.76
2018-10-21T20:59:16.758Z,82.47
2018-10-21T21:01:46.634Z,81.66
2018-10-21T21:04:16.965Z,81.97
2018-10-21T21:06:47.092Z,83.52
2018-10-21T21:09:17.027Z,84.00
2018-10-21T21:11:47.318Z,82.83
2018-10-21T21:14:17.308Z,82.02
2018-10-21T21:16:47.254Z,80.49
2018-10-21T21:19:17.725Z,79.13
2018-10-21T21:21:47.734Z,78.91
2018-10-21T21:24:17.734Z,79.60
2018-10-21T21:26:48.102Z,80.73
2018-10-21T21:29:18.082Z,80.59
2018-10-21T21:31:47.908Z,81.13
2018-10-21T21:34:18.026Z,80.93
2018-10-21T21:36:47.819Z,80.88
2018-10-21T21:39:17.655Z,81.41
2018-10-21T21:41:47.949Z,82.08
2018-10-21T21:44:18.225Z,82.46
2018-10-21T21:46:49.243Z,83.30
2018-10-21T21:49:19.399Z,82.91
2018-10-21T21:51:49.369Z,82.77
2018-10-21T21:54:19.394Z,82.72
2018-10-21T21:56:49.358Z,82.72
2018-10-21T21:59:19.302Z,82.63
2018-10-21T22:01:49.280Z,82.78
2018-10-21T22:04:19.627Z,82.86
2018-10-21T22:06:50.195Z,83.17
2018-10-21T22:09:20.410Z,82.53
2018-10-21T22:11:50.300Z,81.98
2018-10-21T22:14:20.574Z,81.93
2018-10-21T22:16:50.688Z,82.62
2018-10-21T22:19:21.014Z,83.65
2018-10-21T22:21:51.966Z,83.08
2018-10-21T22:24:22.738Z,83.03
2018-10-21T22:26:52.696Z,82.71
2018-10-21T22:29:22.766Z,82.17
2018-10-21T22:31:52.713Z,81.25
2018-10-21T22:34:22.566Z,79.94
2018-10-21T22:36:52.659Z,81.47
2018-10-21T22:39:22.624Z,81.45
2018-10-21T22:41:52.555Z,80.86
2018-10-21T22:44:22.473Z,80.27
2018-10-21T22:46:52.958Z,80.29
2018-10-21T22:49:22.971Z,80.50
2018-10-21T22:51:52.937Z,80.42
2018-10-21T22:54:23.115Z,79.40
2018-10-21T22:56:53.083Z,79.48
2018-10-21T22:59:23.427Z,79.18
2018-10-21T23:01:53.488Z,79.86
2018-10-21T23:04:24.316Z,80.98
2018-10-21T23:06:54.484Z,81.02
2018-10-21T23:09:24.397Z,81.94
2018-10-21T23:11:54.402Z,81.67
2018-10-21T23:14:24.323Z,81.23
2018-10-21T23:16:54.292Z,81.77
2018-10-21T23:19:46.036Z,82.41
2018-10-21T23:22:16.201Z,82.46
2018-10-21T23:24:46.057Z,81.57
2018-10-21T23:27:15.859Z,82.21
2018-10-21T23:29:45.835Z,82.49
2018-10-21T23:32:15.758Z,82.76
2018-10-21T23:34:45.783Z,82.47
2018-10-21T23:37:15.759Z,82.18
2018-10-21T23:39:45.792Z,81.02
2018-10-21T23:42:15.944Z,81.75
2018-10-21T23:44:46.147Z,80.77
2018-10-21T23:47:16.226Z,81.66
2018-10-21T23:49:46.168Z,81.63
2018-10-21T23:52:16.416Z,80.24
2018-10-21T23:54:46.813Z,79.35
2018-10-21T23:57:16.814Z,78.82
2018-10-21T23:59:46.781Z,79.73
